sensor_id;sensor_type;location;lat;lon;timestamp;pressure;altitude;pressure_sealevel;temperature;humidity
21779;BME280;11050;52.222;20.916;2023-02-19T00:01:16;99607.72;;;3.88;100.00
21779;BME280;11050;52.222;20.916;2023-02-19T00:03:47;99603.72;;;3.91;100.00
21779;BME280;11050;52.222;20.916;2023-02-19T00:06:14;99586.94;;;3.94;100.00
21779;BME280;11050;52.222;20.916;2023-02-19T00:08:40;99583.03;;;3.90;100.00
21779;BME280;11050;52.222;20.916;2023-02-19T00:11:11;99593.91;;;3.90;100.00
21779;BME280;11050;52.222;20.916;2023-02-19T00:13:43;99581.06;;;3.97;100.00
21779;BME280;11050;52.222;20.916;2023-02-19T00:16:18;99599.38;;;4.02;100.00
21779;BME280;11050;52.222;20.916;2023-02-19T00:18:45;99596.47;;;4.03;100.00
21779;BME280;11050;52.222;20.916;2023-02-19T00:21:12;99590.94;;;4.10;100.00
21779;BME280;11050;52.222;20.916;2023-02-19T00:23:38;99586.41;;;4.04;100.00
21779;BME280;11050;52.222;20.916;2023-02-19T00:26:11;99596.06;;;4.18;100.00
21779;BME280;11050;52.222;20.916;2023-02-19T00:28:38;99597.94;;;4.17;100.00
21779;BME280;11050;52.222;20.916;2023-02-19T00:31:19;99579.97;;;4.16;100.00
21779;BME280;11050;52.222;20.916;2023-02-19T00:33:46;99584.69;;;4.21;100.00
21779;BME280;11050;52.222;20.916;2023-02-19T00:36:12;99584.25;;;4.24;100.00
21779;BME280;11050;52.222;20.916;2023-02-19T00:38:40;99590.16;;;4.21;100.00
21779;BME280;11050;52.222;20.916;2023-02-19T00:41:08;99580.56;;;4.18;100.00
21779;BME280;11050;52.222;20.916;2023-02-19T00:43:59;99573.75;;;4.27;100.00
21779;BME280;11050;52.222;20.916;2023-02-19T00:46:35;99573.28;;;4.30;100.00
21779;BME280;11050;52.222;20.916;2023-02-19T00:49:03;99595.38;;;4.34;100.00
21779;BME280;11050;52.222;20.916;2023-02-19T00:51:33;99558.50;;;4.38;100.00
21779;BME280;11050;52.222;20.916;2023-02-19T00:54:00;99588.91;;;4.35;100.00
21779;BME280;11050;52.222;20.916;2023-02-19T00:56:27;99581.78;;;4.34;100.00
21779;BME280;11050;52.222;20.916;2023-02-19T00:58:53;99588.06;;;4.34;100.00
21779;BME280;11050;52.222;20.916;2023-02-19T01:01:19;99587.03;;;4.35;100.00
21779;BME280;11050;52.222;20.916;2023-02-19T01:03:46;99583.72;;;4.33;100.00
21779;BME280;11050;52.222;20.916;2023-02-19T01:06:15;99590.44;;;4.31;100.00
21779;BME280;11050;52.222;20.916;2023-02-19T01:08:42;99585.59;;;4.33;100.00
21779;BME280;11050;52.222;20.916;2023-02-19T01:11:09;99579.47;;;4.37;100.00
21779;BME280;11050;52.222;20.916;2023-02-19T01:13:35;99578.75;;;4.42;100.00
21779;BME280;11050;52.222;20.916;2023-02-19T01:16:18;99572.13;;;4.38;100.00
21779;BME280;11050;52.222;20.916;2023-02-19T01:18:45;99559.34;;;4.38;100.00
21779;BME280;11050;52.222;20.916;2023-02-19T01:21:17;99584.19;;;4.42;100.00
21779;BME280;11050;52.222;20.916;2023-02-19T01:23:44;99580.44;;;4.43;100.00
21779;BME280;11050;52.222;20.916;2023-02-19T01:26:17;99566.69;;;4.38;100.00
21779;BME280;11050;52.222;20.916;2023-02-19T01:28:43;99561.25;;;4.38;100.00
21779;BME280;11050;52.222;20.916;2023-02-19T01:31:14;99570.16;;;4.45;100.00
21779;BME280;11050;52.222;20.916;2023-02-19T01:33:45;99571.56;;;4.47;100.00
21779;BME280;11050;52.222;20.916;2023-02-19T01:36:11;99571.44;;;4.42;100.00
21779;BME280;11050;52.222;20.916;2023-02-19T01:38:37;99580.44;;;4.43;100.00
21779;BME280;11050;52.222;20.916;2023-02-19T01:41:05;99576.03;;;4.42;100.00
21779;BME280;11050;52.222;20.916;2023-02-19T01:43:34;99582.75;;;4.39;100.00
21779;BME280;11050;52.222;20.916;2023-02-19T01:46:19;99581.59;;;4.47;100.00
21779;BME280;11050;52.222;20.916;2023-02-19T01:48:46;99579.84;;;4.41;100.00
21779;BME280;11050;52.222;20.916;2023-02-19T01:51:16;99575.19;;;4.41;100.00
21779;BME280;11050;52.222;20.916;2023-02-19T01:53:50;99580.44;;;4.43;100.00
21779;BME280;11050;52.222;20.916;2023-02-19T01:56:19;99581.59;;;4.47;100.00
21779;BME280;11050;52.222;20.916;2023-02-19T01:58:46;99575.00;;;4.43;100.00
21779;BME280;11050;52.222;20.916;2023-02-19T02:01:12;99573.63;;;4.34;100.00
21779;BME280;11050;52.222;20.916;2023-02-19T02:03:41;99563.34;;;4.36;100.00
21779;BME280;11050;52.222;20.916;2023-02-19T02:06:38;99585.13;;;4.36;100.00
21779;BME280;11050;52.222;20.916;2023-02-19T02:09:07;99573.06;;;4.43;100.00
21779;BME280;11050;52.222;20.916;2023-02-19T02:11:51;99578.75;;;4.42;100.00
21779;BME280;11050;52.222;20.916;2023-02-19T02:14:23;99584.31;;;4.47;100.00
21779;BME280;11050;52.222;20.916;2023-02-19T02:17:33;99576.16;;;4.47;100.00
21779;BME280;11050;52.222;20.916;2023-02-19T02:20:16;99571.19;;;4.44;100.00
21779;BME280;11050;52.222;20.916;2023-02-19T02:23:28;99576.75;;;4.37;100.00
21779;BME280;11050;52.222;20.916;2023-02-19T02:26:08;99581.13;;;4.38;100.00
21779;BME280;11050;52.222;20.916;2023-02-19T02:29:17;99578.41;;;4.38;100.00
21779;BME280;11050;52.222;20.916;2023-02-19T02:31:53;99565.47;;;4.34;100.00
21779;BME280;11050;52.222;20.916;2023-02-19T02:34:35;99582.75;;;4.39;100.00
21779;BME280;11050;52.222;20.916;2023-02-19T02:37:08;99585.00;;;4.31;100.00
21779;BME280;11050;52.222;20.916;2023-02-19T02:39:36;99580.84;;;4.28;100.00
21779;BME280;11050;52.222;20.916;2023-02-19T02:42:03;99572.00;;;4.33;100.00
21779;BME280;11050;52.222;20.916;2023-02-19T02:44:47;99579.47;;;4.37;100.00
21779;BME280;11050;52.222;20.916;2023-02-19T02:47:58;99567.78;;;4.19;100.00
21779;BME280;11050;52.222;20.916;2023-02-19T02:50:29;99581.19;;;4.20;100.00
21779;BME280;11050;52.222;20.916;2023-02-19T02:53:25;99585.06;;;4.24;100.00
21779;BME280;11050;52.222;20.916;2023-02-19T02:56:13;99575.94;;;4.19;100.00
21779;BME280;11050;52.222;20.916;2023-02-19T02:58:40;99574.53;;;4.16;100.00
21779;BME280;11050;52.222;20.916;2023-02-19T03:01:13;99564.47;;;4.17;100.00
21779;BME280;11050;52.222;20.916;2023-02-19T03:04:11;99565.59;;;4.27;100.00
21779;BME280;11050;52.222;20.916;2023-02-19T03:06:40;99562.16;;;4.20;100.00
21779;BME280;11050;52.222;20.916;2023-02-19T03:09:14;99566.88;;;4.25;100.00
21779;BME280;11050;52.222;20.916;2023-02-19T03:11:48;99566.28;;;4.23;100.00
21779;BME280;11050;52.222;20.916;2023-02-19T03:14:40;99557.38;;;4.16;100.00
21779;BME280;11050;52.222;20.916;2023-02-19T03:17:40;99574.06;;;4.19;100.00
21779;BME280;11050;52.222;20.916;2023-02-19T03:20:50;99554.53;;;4.11;100.00
21779;BME280;11050;52.222;20.916;2023-02-19T03:23:21;99566.63;;;4.15;100.00
21779;BME280;11050;52.222;20.916;2023-02-19T03:26:10;99564.09;;;4.13;100.00
21779;BME280;11050;52.222;20.916;2023-02-19T03:28:39;99566.09;;;4.06;100.00
21779;BME280;11050;52.222;20.916;2023-02-19T03:31:29;99577.28;;;3.98;100.00
21779;BME280;11050;52.222;20.916;2023-02-19T03:34:01;99574.34;;;4.00;100.00
21779;BME280;11050;52.222;20.916;2023-02-19T03:36:38;99579.88;;;3.93;100.00
21779;BME280;11050;52.222;20.916;2023-02-19T03:39:10;99562.94;;;3.91;100.00
21779;BME280;11050;52.222;20.916;2023-02-19T03:42:00;99571.94;;;3.92;100.00
21779;BME280;11050;52.222;20.916;2023-02-19T03:48:32;99555.03;;;3.71;100.00
21779;BME280;11050;52.222;20.916;2023-02-19T03:51:28;99554.31;;;3.64;100.00
21779;BME280;11050;52.222;20.916;2023-02-19T03:56:59;99545.88;;;3.54;100.00
21779;BME280;11050;52.222;20.916;2023-02-19T04:00:08;99545.47;;;3.51;100.00
21779;BME280;11050;52.222;20.916;2023-02-19T04:05:51;99542.91;;;3.38;100.00
21779;BME280;11050;52.222;20.916;2023-02-19T04:08:22;99547.38;;;3.32;100.00
21779;BME280;11050;52.222;20.916;2023-02-19T04:10:50;99550.44;;;3.36;100.00
21779;BME280;11050;52.222;20.916;2023-02-19T04:13:24;99552.56;;;3.34;100.00
21779;BME280;11050;52.222;20.916;2023-02-19T04:15:56;99540.53;;;3.30;100.00
21779;BME280;11050;52.222;20.916;2023-02-19T04:18:28;99536.50;;;3.32;100.00
21779;BME280;11050;52.222;20.916;2023-02-19T04:20:57;99530.31;;;3.25;100.00
21779;BME280;11050;52.222;20.916;2023-02-19T04:23:27;99529.47;;;3.25;100.00
21779;BME280;11050;52.222;20.916;2023-02-19T04:25:57;99522.56;;;3.29;100.00
21779;BME280;11050;52.222;20.916;2023-02-19T04:28:24;99528.88;;;3.23;100.00
21779;BME280;11050;52.222;20.916;2023-02-19T04:30:50;99527.59;;;3.25;100.00
21779;BME280;11050;52.222;20.916;2023-02-19T04:33:15;99529.25;;;3.26;100.00
21779;BME280;11050;52.222;20.916;2023-02-19T04:35:41;99521.56;;;3.23;100.00
21779;BME280;11050;52.222;20.916;2023-02-19T04:38:07;99525.72;;;3.26;100.00
21779;BME280;11050;52.222;20.916;2023-02-19T04:40:33;99514.88;;;3.26;100.00
21779;BME280;11050;52.222;20.916;2023-02-19T04:42:58;99516.28;;;3.28;100.00
21779;BME280;11050;52.222;20.916;2023-02-19T04:45:24;99509.69;;;3.24;100.00
21779;BME280;11050;52.222;20.916;2023-02-19T04:47:50;99517.34;;;3.27;100.00
21779;BME280;11050;52.222;20.916;2023-02-19T04:50:15;99521.28;;;3.31;100.00
21779;BME280;11050;52.222;20.916;2023-02-19T04:52:41;99529.81;;;3.35;100.00
21779;BME280;11050;52.222;20.916;2023-02-19T04:55:08;99534.63;;;3.33;100.00
21779;BME280;11050;52.222;20.916;2023-02-19T04:57:34;99535.09;;;3.30;100.00
21779;BME280;11050;52.222;20.916;2023-02-19T05:00:00;99531.53;;;3.29;100.00
21779;BME280;11050;52.222;20.916;2023-02-19T05:02:26;99510.25;;;3.26;100.00
21779;BME280;11050;52.222;20.916;2023-02-19T05:04:52;99512.16;;;3.26;100.00
21779;BME280;11050;52.222;20.916;2023-02-19T05:07:17;99525.28;;;3.29;100.00
21779;BME280;11050;52.222;20.916;2023-02-19T05:09:43;99502.56;;;3.23;100.00
21779;BME280;11050;52.222;20.916;2023-02-19T05:12:09;99522.56;;;3.29;100.00
21779;BME280;11050;52.222;20.916;2023-02-19T05:14:34;99519.59;;;3.30;100.00
21779;BME280;11050;52.222;20.916;2023-02-19T05:17:00;99503.78;;;3.27;100.00
21779;BME280;11050;52.222;20.916;2023-02-19T05:19:26;99505.38;;;3.35;100.00
21779;BME280;11050;52.222;20.916;2023-02-19T05:21:51;99522.13;;;3.32;100.00
21779;BME280;11050;52.222;20.916;2023-02-19T05:24:17;99504.53;;;3.34;100.00
21779;BME280;11050;52.222;20.916;2023-02-19T05:26:43;99519.97;;;3.34;100.00
21779;BME280;11050;52.222;20.916;2023-02-19T05:29:09;99517.50;;;3.32;100.00
21779;BME280;11050;52.222;20.916;2023-02-19T05:31:34;99514.25;;;3.42;100.00
21779;BME280;11050;52.222;20.916;2023-02-19T05:34:00;99505.44;;;3.46;100.00
21779;BME280;11050;52.222;20.916;2023-02-19T05:36:26;99509.34;;;3.50;100.00
21779;BME280;11050;52.222;20.916;2023-02-19T05:38:54;99493.50;;;3.47;100.00
21779;BME280;11050;52.222;20.916;2023-02-19T05:41:28;99497.19;;;3.53;100.00
21779;BME280;11050;52.222;20.916;2023-02-19T05:43:55;99506.31;;;3.58;100.00
21779;BME280;11050;52.222;20.916;2023-02-19T05:46:26;99504.78;;;3.62;100.00
21779;BME280;11050;52.222;20.916;2023-02-19T05:48:54;99491.97;;;3.69;100.00
21779;BME280;11050;52.222;20.916;2023-02-19T05:51:23;99492.34;;;3.73;100.00
21779;BME280;11050;52.222;20.916;2023-02-19T05:53:49;99494.69;;;3.69;100.00
21779;BME280;11050;52.222;20.916;2023-02-19T05:56:40;99505.94;;;3.73;100.00
21779;BME280;11050;52.222;20.916;2023-02-19T05:59:18;99496.34;;;3.70;100.00
21779;BME280;11050;52.222;20.916;2023-02-19T06:01:44;99499.53;;;3.67;100.00
21779;BME280;11050;52.222;20.916;2023-02-19T06:04:11;99512.88;;;3.69;100.00
21779;BME280;11050;52.222;20.916;2023-02-19T06:06:39;99501.09;;;3.75;100.00
21779;BME280;11050;52.222;20.916;2023-02-19T06:09:07;99502.28;;;3.79;100.00
21779;BME280;11050;52.222;20.916;2023-02-19T06:11:33;99499.72;;;3.84;100.00
21779;BME280;11050;52.222;20.916;2023-02-19T06:13:59;99498.59;;;3.73;100.00
21779;BME280;11050;52.222;20.916;2023-02-19T06:16:25;99507.25;;;3.82;100.00
21779;BME280;11050;52.222;20.916;2023-02-19T06:18:51;99521.53;;;3.77;100.00
21779;BME280;11050;52.222;20.916;2023-02-19T06:21:18;99539.50;;;3.78;100.00
21779;BME280;11050;52.222;20.916;2023-02-19T06:23:44;99507.25;;;3.82;100.00
21779;BME280;11050;52.222;20.916;2023-02-19T06:26:15;99520.97;;;3.87;100.00
21779;BME280;11050;52.222;20.916;2023-02-19T06:28:42;99523.94;;;3.85;100.00
21779;BME280;11050;52.222;20.916;2023-02-19T06:31:10;99524.06;;;3.91;100.00
21779;BME280;11050;52.222;20.916;2023-02-19T06:33:37;99518.88;;;3.89;100.00
21779;BME280;11050;52.222;20.916;2023-02-19T06:36:15;99526.78;;;3.91;100.00
21779;BME280;11050;52.222;20.916;2023-02-19T06:38:41;99518.78;;;3.96;100.00
21779;BME280;11050;52.222;20.916;2023-02-19T06:41:08;99529.56;;;4.02;100.00
21779;BME280;11050;52.222;20.916;2023-02-19T06:43:35;99525.06;;;4.08;100.00
21779;BME280;11050;52.222;20.916;2023-02-19T06:46:03;99522.59;;;4.06;100.00
21779;BME280;11050;52.222;20.916;2023-02-19T06:48:30;99523.19;;;4.08;100.00
21779;BME280;11050;52.222;20.916;2023-02-19T06:50:57;99509.84;;;4.07;100.00
21779;BME280;11050;52.222;20.916;2023-02-19T06:53:23;99514.72;;;4.16;100.00
21779;BME280;11050;52.222;20.916;2023-02-19T06:56:01;99522.03;;;4.16;100.00
21779;BME280;11050;52.222;20.916;2023-02-19T06:58:27;99513.41;;;4.07;100.00
21779;BME280;11050;52.222;20.916;2023-02-19T07:00:54;99528.75;;;4.13;100.00
21779;BME280;11050;52.222;20.916;2023-02-19T07:03:20;99542.03;;;4.21;100.00
21779;BME280;11050;52.222;20.916;2023-02-19T07:05:46;99530.69;;;4.13;100.00
21779;BME280;11050;52.222;20.916;2023-02-19T07:08:12;99548.28;;;4.10;100.00
21779;BME280;11050;52.222;20.916;2023-02-19T07:10:38;99535.03;;;4.14;100.00
21779;BME280;11050;52.222;20.916;2023-02-19T07:13:03;99540.94;;;4.11;100.00
21779;BME280;11050;52.222;20.916;2023-02-19T07:15:29;99534.56;;;4.05;100.00
21779;BME280;11050;52.222;20.916;2023-02-19T07:17:55;99526.88;;;4.14;100.00
21779;BME280;11050;52.222;20.916;2023-02-19T07:20:20;99540.00;;;4.17;100.00
21779;BME280;11050;52.222;20.916;2023-02-19T07:22:46;99529.84;;;4.12;100.00
21779;BME280;11050;52.222;20.916;2023-02-19T07:25:12;99556.00;;;4.25;100.00
21779;BME280;11050;52.222;20.916;2023-02-19T07:27:37;99542.63;;;4.23;100.00
21779;BME280;11050;52.222;20.916;2023-02-19T07:30:04;99548.00;;;4.30;100.00
21779;BME280;11050;52.222;20.916;2023-02-19T07:32:30;99574.22;;;4.36;100.00
21779;BME280;11050;52.222;20.916;2023-02-19T07:34:56;99539.97;;;4.35;100.00
21779;BME280;11050;52.222;20.916;2023-02-19T07:37:21;99553.44;;;4.30;100.00
21779;BME280;11050;52.222;20.916;2023-02-19T07:39:48;99549.56;;;4.37;100.00
21779;BME280;11050;52.222;20.916;2023-02-19T07:42:13;99551.19;;;4.38;100.00
21779;BME280;11050;52.222;20.916;2023-02-19T07:44:39;99563.34;;;4.36;100.00
21779;BME280;11050;52.222;20.916;2023-02-19T07:47:05;99545.75;;;4.38;100.00
21779;BME280;11050;52.222;20.916;2023-02-19T07:49:30;99555.16;;;4.54;100.00
21779;BME280;11050;52.222;20.916;2023-02-19T07:51:57;99556.34;;;4.58;100.00
21779;BME280;11050;52.222;20.916;2023-02-19T07:54:23;99552.53;;;4.59;100.00
21779;BME280;11050;52.222;20.916;2023-02-19T07:56:48;99570.91;;;4.63;100.00
21779;BME280;11050;52.222;20.916;2023-02-19T07:59:15;99543.44;;;4.65;100.00
21779;BME280;11050;52.222;20.916;2023-02-19T08:01:43;99547.25;;;4.75;100.00
21779;BME280;11050;52.222;20.916;2023-02-19T08:04:27;99554.00;;;4.84;100.00
21779;BME280;11050;52.222;20.916;2023-02-19T08:06:53;99555.06;;;4.83;100.00
21779;BME280;11050;52.222;20.916;2023-02-19T08:09:19;99553.78;;;4.86;100.00
21779;BME280;11050;52.222;20.916;2023-02-19T08:11:44;99573.28;;;4.83;100.00
21779;BME280;11050;52.222;20.916;2023-02-19T08:14:29;99563.13;;;4.78;100.00
21779;BME280;11050;52.222;20.916;2023-02-19T08:16:55;99592.59;;;4.93;100.00
21779;BME280;11050;52.222;20.916;2023-02-19T08:19:21;99570.22;;;4.91;100.00
21779;BME280;11050;52.222;20.916;2023-02-19T08:21:47;99568.09;;;4.93;100.00
21779;BME280;11050;52.222;20.916;2023-02-19T08:24:13;99571.78;;;4.99;100.00
21779;BME280;11050;52.222;20.916;2023-02-19T08:26:38;99585.28;;;5.05;100.00
21779;BME280;11050;52.222;20.916;2023-02-19T08:29:05;99585.41;;;5.10;100.00
21779;BME280;11050;52.222;20.916;2023-02-19T08:31:33;99577.69;;;5.07;100.00
21779;BME280;11050;52.222;20.916;2023-02-19T08:33:59;99572.72;;;5.16;100.00
21779;BME280;11050;52.222;20.916;2023-02-19T08:36:25;99576.50;;;5.38;100.00
21779;BME280;11050;52.222;20.916;2023-02-19T08:38:50;99581.81;;;5.67;100.00
21779;BME280;11050;52.222;20.916;2023-02-19T08:41:16;99599.06;;;5.96;100.00
21779;BME280;11050;52.222;20.916;2023-02-19T08:43:42;99575.56;;;6.07;97.93
21779;BME280;11050;52.222;20.916;2023-02-19T08:46:10;99600.56;;;6.15;97.27
21779;BME280;11050;52.222;20.916;2023-02-19T08:48:37;99585.88;;;6.16;95.50
21779;BME280;11050;52.222;20.916;2023-02-19T08:51:07;99588.72;;;6.10;95.22
21779;BME280;11050;52.222;20.916;2023-02-19T08:53:35;99590.66;;;5.98;95.41
21779;BME280;11050;52.222;20.916;2023-02-19T08:56:06;99574.44;;;5.79;96.25
21779;BME280;11050;52.222;20.916;2023-02-19T08:58:34;99575.25;;;5.80;95.91
21779;BME280;11050;52.222;20.916;2023-02-19T09:01:00;99575.38;;;5.85;95.94
21779;BME280;11050;52.222;20.916;2023-02-19T09:03:26;99592.59;;;5.86;97.48
21779;BME280;11050;52.222;20.916;2023-02-19T09:05:52;99576.22;;;5.74;95.01
21779;BME280;11050;52.222;20.916;2023-02-19T09:08:17;99588.41;;;5.71;94.44
21779;BME280;11050;52.222;20.916;2023-02-19T09:10:43;99571.13;;;5.66;93.75
21779;BME280;11050;52.222;20.916;2023-02-19T09:13:09;99575.78;;;5.65;95.17
21779;BME280;11050;52.222;20.916;2023-02-19T09:15:37;99582.25;;;5.76;94.58
21779;BME280;11050;52.222;20.916;2023-02-19T09:18:03;99587.38;;;5.72;93.75
21779;BME280;11050;52.222;20.916;2023-02-19T09:20:29;99580.03;;;5.61;94.32
21779;BME280;11050;52.222;20.916;2023-02-19T09:22:59;99591.28;;;5.65;94.47
21779;BME280;11050;52.222;20.916;2023-02-19T09:25:25;99587.03;;;5.57;95.11
21779;BME280;11050;52.222;20.916;2023-02-19T09:27:55;99577.31;;;5.61;95.10
21779;BME280;11050;52.222;20.916;2023-02-19T09:30:20;99593.63;;;5.85;95.50
21779;BME280;11050;52.222;20.916;2023-02-19T09:32:46;99587.22;;;5.91;93.89
21779;BME280;11050;52.222;20.916;2023-02-19T09:35:12;99598.94;;;6.03;91.41
21779;BME280;11050;52.222;20.916;2023-02-19T09:37:37;99582.91;;;6.06;90.61
21779;BME280;11050;52.222;20.916;2023-02-19T09:40:03;99588.38;;;6.06;90.84
21779;BME280;11050;52.222;20.916;2023-02-19T09:42:31;99596.44;;;6.13;91.12
21779;BME280;11050;52.222;20.916;2023-02-19T09:45:00;99597.44;;;6.23;89.77
21779;BME280;11050;52.222;20.916;2023-02-19T09:47:31;99607.53;;;6.23;88.35
21779;BME280;11050;52.222;20.916;2023-02-19T09:50:08;99594.63;;;6.18;86.75
21779;BME280;11050;52.222;20.916;2023-02-19T09:52:46;99609.06;;;6.19;87.49
21779;BME280;11050;52.222;20.916;2023-02-19T09:55:28;99613.66;;;6.30;87.17
21779;BME280;11050;52.222;20.916;2023-02-19T09:57:57;99603.50;;;6.53;85.00
21779;BME280;11050;52.222;20.916;2023-02-19T10:00:26;99605.66;;;6.68;84.39
21779;BME280;11050;52.222;20.916;2023-02-19T10:03:03;99594.16;;;6.66;83.61
21779;BME280;11050;52.222;20.916;2023-02-19T10:05:32;99604.94;;;6.72;82.57
21779;BME280;11050;52.222;20.916;2023-02-19T10:07:58;99603.91;;;6.62;81.61
21779;BME280;11050;52.222;20.916;2023-02-19T10:10:34;99602.59;;;6.64;82.30
21779;BME280;11050;52.222;20.916;2023-02-19T10:13:19;99612.94;;;6.79;82.16
21779;BME280;11050;52.222;20.916;2023-02-19T10:15:50;99593.50;;;6.92;79.33
21779;BME280;11050;52.222;20.916;2023-02-19T10:18:21;99611.97;;;7.02;77.93
21779;BME280;11050;52.222;20.916;2023-02-19T10:20:51;99601.16;;;7.07;77.19
21779;BME280;11050;52.222;20.916;2023-02-19T10:23:18;99603.81;;;7.18;77.02
21779;BME280;11050;52.222;20.916;2023-02-19T10:25:52;99618.19;;;7.30;75.18
21779;BME280;11050;52.222;20.916;2023-02-19T10:28:23;99612.78;;;7.35;74.98
21779;BME280;11050;52.222;20.916;2023-02-19T10:30:58;99609.97;;;7.47;73.91
21779;BME280;11050;52.222;20.916;2023-02-19T10:33:25;99630.19;;;7.46;73.39
21779;BME280;11050;52.222;20.916;2023-02-19T10:35:59;99619.59;;;7.33;73.39
21779;BME280;11050;52.222;20.916;2023-02-19T10:38:35;99619.69;;;7.21;74.34
21779;BME280;11050;52.222;20.916;2023-02-19T10:41:07;99615.22;;;7.15;74.63
21779;BME280;11050;52.222;20.916;2023-02-19T10:43:41;99623.34;;;7.27;74.04
21779;BME280;11050;52.222;20.916;2023-02-19T10:46:21;99614.16;;;7.33;72.83
21779;BME280;11050;52.222;20.916;2023-02-19T10:49:01;99630.53;;;7.33;73.86
21779;BME280;11050;52.222;20.916;2023-02-19T10:51:38;99628.13;;;7.36;72.36
21779;BME280;11050;52.222;20.916;2023-02-19T10:54:15;99630.28;;;7.34;71.72
21779;BME280;11050;52.222;20.916;2023-02-19T10:56:42;99617.44;;;7.51;72.70
21779;BME280;11050;52.222;20.916;2023-02-19T10:59:25;99631.03;;;7.85;70.38
21779;BME280;11050;52.222;20.916;2023-02-19T11:02:14;99632.31;;;7.99;68.58
21779;BME280;11050;52.222;20.916;2023-02-19T11:04:41;99622.53;;;8.03;67.37
21779;BME280;11050;52.222;20.916;2023-02-19T11:07:09;99627.38;;;8.17;66.88
21779;BME280;11050;52.222;20.916;2023-02-19T11:09:43;99624.16;;;8.04;67.04
21779;BME280;11050;52.222;20.916;2023-02-19T11:12:13;99631.22;;;8.00;67.52
21779;BME280;11050;52.222;20.916;2023-02-19T11:14:43;99641.09;;;8.01;67.52
21779;BME280;11050;52.222;20.916;2023-02-19T11:17:26;99637.53;;;8.00;67.49
21779;BME280;11050;52.222;20.916;2023-02-19T11:20:06;99632.69;;;8.07;67.43
21779;BME280;11050;52.222;20.916;2023-02-19T11:22:42;99640.69;;;8.09;66.59
21779;BME280;11050;52.222;20.916;2023-02-19T11:28:05;99628.91;;;7.70;67.55
21779;BME280;11050;52.222;20.916;2023-02-19T11:30:36;99640.09;;;7.68;67.87
21779;BME280;11050;52.222;20.916;2023-02-19T11:35:45;99648.47;;;7.62;68.14
21779;BME280;11050;52.222;20.916;2023-02-19T11:38:15;99654.38;;;7.54;69.75
21779;BME280;11050;52.222;20.916;2023-02-19T11:41:07;99642.69;;;7.58;67.96
21779;BME280;11050;52.222;20.916;2023-02-19T11:44:11;99639.84;;;7.70;67.48
21779;BME280;11050;52.222;20.916;2023-02-19T11:47:10;99647.31;;;7.75;67.03
21779;BME280;11050;52.222;20.916;2023-02-19T11:50:21;99636.13;;;7.98;66.78
21779;BME280;11050;52.222;20.916;2023-02-19T12:16:32;99658.63;;;8.91;61.79
21779;BME280;11050;52.222;20.916;2023-02-19T12:19:09;99674.50;;;9.47;57.31
21779;BME280;11050;52.222;20.916;2023-02-19T12:21:53;99664.78;;;9.67;58.00
21779;BME280;11050;52.222;20.916;2023-02-19T12:24:51;99675.25;;;10.16;56.56
21779;BME280;11050;52.222;20.916;2023-02-19T12:36:12;99683.59;;;11.94;48.47
21779;BME280;11050;52.222;20.916;2023-02-19T12:44:47;99682.59;;;9.69;54.38
21779;BME280;11050;52.222;20.916;2023-02-19T12:47:22;99701.03;;;9.37;55.75
21779;BME280;11050;52.222;20.916;2023-02-19T12:50:19;99691.72;;;9.11;56.40
21779;BME280;11050;52.222;20.916;2023-02-19T12:53:22;99692.97;;;8.99;57.46
21779;BME280;11050;52.222;20.916;2023-02-19T12:55:51;99700.88;;;8.95;57.49
21779;BME280;11050;52.222;20.916;2023-02-19T12:58:45;99713.31;;;8.81;56.80
21779;BME280;11050;52.222;20.916;2023-02-19T13:01:22;99712.44;;;8.32;59.24
21779;BME280;11050;52.222;20.916;2023-02-19T13:04:17;99696.97;;;8.05;59.45
21779;BME280;11050;52.222;20.916;2023-02-19T13:07:01;99709.19;;;7.81;60.56
21779;BME280;11050;52.222;20.916;2023-02-19T13:09:52;99708.56;;;7.57;62.70
21779;BME280;11050;52.222;20.916;2023-02-19T13:12:25;99715.59;;;7.69;63.48
21779;BME280;11050;52.222;20.916;2023-02-19T13:15:02;99717.75;;;8.39;61.24
21779;BME280;11050;52.222;20.916;2023-02-19T13:17:44;99709.38;;;8.29;60.30
21779;BME280;11050;52.222;20.916;2023-02-19T13:20:41;99715.56;;;8.03;61.23
21779;BME280;11050;52.222;20.916;2023-02-19T13:23:26;99714.44;;;7.82;62.35
21779;BME280;11050;52.222;20.916;2023-02-19T13:26:52;99723.31;;;7.73;62.37
21779;BME280;11050;52.222;20.916;2023-02-19T13:29:44;99725.88;;;7.46;64.06
21779;BME280;11050;52.222;20.916;2023-02-19T13:38:00;99716.78;;;6.96;64.77
21779;BME280;11050;52.222;20.916;2023-02-19T13:40:41;99722.28;;;6.84;66.19
21779;BME280;11050;52.222;20.916;2023-02-19T13:43:34;99728.16;;;7.21;66.53
21779;BME280;11050;52.222;20.916;2023-02-19T13:46:14;99732.72;;;7.98;61.38
21779;BME280;11050;52.222;20.916;2023-02-19T13:48:42;99745.78;;;7.75;60.68
21779;BME280;11050;52.222;20.916;2023-02-19T13:59:25;99758.38;;;7.14;65.08
21779;BME280;11050;52.222;20.916;2023-02-19T14:05:05;99741.66;;;8.48;61.65
21779;BME280;11050;52.222;20.916;2023-02-19T14:07:55;99750.38;;;10.37;54.36
21779;BME280;11050;52.222;20.916;2023-02-19T14:10:53;99764.75;;;11.36;49.15
21779;BME280;11050;52.222;20.916;2023-02-19T14:16:49;99795.31;;;11.34;47.43
21779;BME280;11050;52.222;20.916;2023-02-19T14:25:41;99795.75;;;13.02;41.32
21779;BME280;11050;52.222;20.916;2023-02-19T14:28:24;99765.13;;;11.70;43.63
21779;BME280;11050;52.222;20.916;2023-02-19T14:30:56;99772.88;;;10.96;46.30
21779;BME280;11050;52.222;20.916;2023-02-19T14:33:33;99775.13;;;10.47;47.93
21779;BME280;11050;52.222;20.916;2023-02-19T14:36:45;99783.44;;;9.84;49.98
21779;BME280;11050;52.222;20.916;2023-02-19T14:39:21;99785.91;;;9.53;51.60
21779;BME280;11050;52.222;20.916;2023-02-19T14:41:53;99774.06;;;9.21;53.06
21779;BME280;11050;52.222;20.916;2023-02-19T14:44:30;99790.44;;;9.16;54.14